Time;durP1;ratioP1;P1;durP2;ratioP2;P2;SDS_P1;SDS_P2;PMS_P1;PMS_P2;Temp;Humidity;BMP_temperature;BMP_pressure;BME280_temperature;BME280_humidity;BME280_pressure;Samples;Min_cycle;Max_cycle;Signal;HPM_P1;HPM_P2
2021/01/14 00:00:34;;;;;;;8.07;1.90;;;;;;;;;;5108366;28;20067;-88
2021/01/14 00:03:01;;;;;;;8.48;2.42;;;;;;;;;;5040596;28;20049;-88
2021/01/14 00:05:28;;;;;;;7.55;1.90;;;;;;;;;;5109199;28;20044;-89
2021/01/14 00:07:54;;;;;;;7.65;1.95;;;;;;;;;;5041402;28;20033;-89
2021/01/14 00:10:21;;;;;;;5.72;1.73;;;;;;;;;;5042039;28;20029;-88
2021/01/14 00:12:51;;;;;;;9.50;2.00;;;;;;;;;;5109918;28;20044;-87
2021/01/14 00:15:17;;;;;;;6.25;2.08;;;;;;;;;;5108630;28;20034;-88
2021/01/14 00:17:44;;;;;;;6.47;1.85;;;;;;;;;;5041477;28;20409;-88
2021/01/14 00:20:12;;;;;;;9.02;2.05;;;;;;;;;;5110754;28;20049;-88
2021/01/14 00:22:38;;;;;;;9.27;1.92;;;;;;;;;;5109401;28;20054;-89
2021/01/14 00:25:06;;;;;;;8.98;2.25;;;;;;;;;;5108698;28;20326;-88
2021/01/14 00:27:32;;;;;;;6.80;1.90;;;;;;;;;;5110031;28;20022;-89
2021/01/14 00:29:58;;;;;;;8.32;2.55;;;;;;;;;;5109370;28;20043;-88
2021/01/14 00:32:25;;;;;;;5.47;1.55;;;;;;;;;;5108990;28;20029;-88
2021/01/14 00:34:51;;;;;;;5.22;2.35;;;;;;;;;;5039881;28;20033;-89
2021/01/14 00:40:03;;;;;;;16.73;5.82;;;;;;;;;;5042141;28;20048;-89
2021/01/14 00:42:29;;;;;;;5.07;1.63;;;;;;;;;;5039093;28;20033;-88
2021/01/14 00:45:00;;;;;;;9.38;1.90;;;;;;;;;;5108433;28;20037;-89
2021/01/14 00:47:26;;;;;;;8.57;1.60;;;;;;;;;;5109458;28;20053;-88
2021/01/14 00:49:53;;;;;;;9.43;1.77;;;;;;;;;;5110012;28;20340;-89
2021/01/14 00:52:19;;;;;;;5.03;2.22;;;;;;;;;;5108218;28;20082;-88
2021/01/14 00:54:45;;;;;;;6.13;1.40;;;;;;;;;;5041610;28;20033;-88
2021/01/14 00:57:11;;;;;;;5.75;1.55;;;;;;;;;;5109190;28;20092;-89
2021/01/14 00:59:37;;;;;;;6.07;1.50;;;;;;;;;;5108817;28;20305;-89
2021/01/14 01:02:06;;;;;;;8.40;2.10;;;;;;;;;;5109610;28;20068;-88
2021/01/14 01:04:33;;;;;;;8.05;2.38;;;;;;;;;;5109625;28;20036;-89
2021/01/14 01:06:59;;;;;;;6.88;1.45;;;;;;;;;;5109944;28;20025;-89
2021/01/14 01:09:25;;;;;;;4.22;1.38;;;;;;;;;;5041160;28;20033;-89
2021/01/14 01:11:51;;;;;;;3.72;1.38;;;;;;;;;;5041391;28;20033;-87
2021/01/14 01:14:17;;;;;;;7.10;1.45;;;;;;;;;;5109860;28;20025;-87
2021/01/14 01:16:44;;;;;;;6.50;1.70;;;;;;;;;;5041794;28;20029;-88
2021/01/14 01:19:10;;;;;;;6.25;1.80;;;;;;;;;;5041120;28;20422;-88
2021/01/14 01:21:41;;;;;;;6.78;1.40;;;;;;;;;;5109565;28;20048;-89
2021/01/14 01:24:07;;;;;;;11.65;2.55;;;;;;;;;;5038661;28;20041;-89
2021/01/14 01:26:33;;;;;;;6.97;1.25;;;;;;;;;;5108874;28;20045;-89
2021/01/14 01:29:00;;;;;;;5.50;1.77;;;;;;;;;;5040568;28;20025;-89
2021/01/14 01:31:26;;;;;;;7.40;1.65;;;;;;;;;;5108497;28;20428;-89
2021/01/14 01:33:55;;;;;;;3.47;1.27;;;;;;;;;;5110046;28;20029;-90
2021/01/14 01:36:21;;;;;;;9.45;2.47;;;;;;;;;;5109296;28;20029;-90
2021/01/14 01:38:47;;;;;;;8.65;1.38;;;;;;;;;;5040636;28;20030;-89
2021/01/14 01:41:14;;;;;;;6.45;1.50;;;;;;;;;;5109371;28;20049;-90
2021/01/14 01:43:40;;;;;;;8.70;1.60;;;;;;;;;;5108709;28;20052;-88
2021/01/14 01:46:06;;;;;;;4.72;1.45;;;;;;;;;;5108923;28;20037;-90
2021/01/14 01:48:32;;;;;;;5.15;1.42;;;;;;;;;;5041041;28;20033;-89
2021/01/14 01:51:01;;;;;;;3.90;1.25;;;;;;;;;;5041061;28;20053;-90
2021/01/14 01:53:27;;;;;;;7.07;1.40;;;;;;;;;;5040209;28;20030;-89
2021/01/14 01:55:53;;;;;;;4.72;1.65;;;;;;;;;;5040082;28;20032;-89
2021/01/14 01:58:21;;;;;;;8.48;1.70;;;;;;;;;;5110099;28;20133;-89
2021/01/14 02:00:47;;;;;;;5.95;1.27;;;;;;;;;;5108918;28;20040;-90
2021/01/14 02:03:13;;;;;;;6.90;2.00;;;;;;;;;;5109813;28;20054;-90
2021/01/14 02:05:40;;;;;;;4.90;1.10;;;;;;;;;;5108624;28;20037;-89
2021/01/14 02:08:06;;;;;;;5.82;1.40;;;;;;;;;;5040939;28;20028;-90
2021/01/14 02:10:33;;;;;;;12.10;1.48;;;;;;;;;;5109109;28;20101;-89
2021/01/14 02:13:18;;;;;;;7.63;1.23;;;;;;;;;;5039091;28;20025;-88
2021/01/14 02:15:45;;;;;;;4.32;1.27;;;;;;;;;;5108785;28;20038;-89
2021/01/14 02:18:15;;;;;;;6.53;1.50;;;;;;;;;;5108740;28;20086;-90
2021/01/14 02:20:41;;;;;;;2.20;1.02;;;;;;;;;;5039620;28;20033;-89
2021/01/14 02:23:21;;;;;;;5.80;1.20;;;;;;;;;;5042180;28;20052;-89
2021/01/14 02:26:11;;;;;;;6.55;1.35;;;;;;;;;;5109948;28;20067;-91
2021/01/14 02:28:39;;;;;;;7.70;1.35;;;;;;;;;;5040296;28;20045;-90
2021/01/14 02:31:06;;;;;;;5.10;1.50;;;;;;;;;;5108262;28;20048;-89
2021/01/14 02:33:33;;;;;;;5.18;1.65;;;;;;;;;;5109486;28;20017;-88
2021/01/14 02:35:59;;;;;;;5.20;1.45;;;;;;;;;;5107918;28;20037;-89
2021/01/14 02:38:25;;;;;;;4.70;1.10;;;;;;;;;;5109696;28;20036;-91
2021/01/14 02:40:51;;;;;;;4.00;1.02;;;;;;;;;;5109409;28;20041;-90
2021/01/14 02:43:17;;;;;;;4.80;1.20;;;;;;;;;;5110521;28;20025;-89
2021/01/14 02:45:44;;;;;;;4.70;1.58;;;;;;;;;;5041452;28;20089;-88
2021/01/14 02:48:15;;;;;;;4.85;1.30;;;;;;;;;;5041673;28;20029;-91
2021/01/14 02:50:42;;;;;;;7.72;2.70;;;;;;;;;;5110448;28;20029;-89
2021/01/14 02:53:15;;;;;;;5.80;1.27;;;;;;;;;;5109652;28;20033;-92
2021/01/14 02:55:41;;;;;;;5.35;1.27;;;;;;;;;;5041737;28;20058;-90
2021/01/14 02:58:07;;;;;;;3.97;1.08;;;;;;;;;;5109509;28;20044;-90
2021/01/14 03:01:02;;;;;;;3.53;1.58;;;;;;;;;;5108970;28;20044;-90
2021/01/14 03:03:28;;;;;;;7.28;1.80;;;;;;;;;;5109818;28;20051;-90
2021/01/14 03:05:54;;;;;;;4.35;1.23;;;;;;;;;;5040368;28;20033;-90
2021/01/14 03:08:20;;;;;;;7.72;2.58;;;;;;;;;;5084264;28;20469;-90
2021/01/14 03:10:47;;;;;;;4.18;1.48;;;;;;;;;;5105440;28;20115;-90
2021/01/14 03:13:13;;;;;;;6.22;1.10;;;;;;;;;;5106317;28;20126;-90
2021/01/14 03:15:39;;;;;;;4.53;1.08;;;;;;;;;;5106855;28;20118;-89
2021/01/14 03:18:05;;;;;;;5.43;1.50;;;;;;;;;;5106894;28;20032;-90
2021/01/14 03:20:31;;;;;;;5.43;1.35;;;;;;;;;;5106809;28;20096;-90
2021/01/14 03:23:00;;;;;;;7.43;1.10;;;;;;;;;;5106735;28;20053;-90
2021/01/14 03:25:26;;;;;;;7.18;1.65;;;;;;;;;;5105975;28;20020;-90
2021/01/14 03:27:52;;;;;;;3.67;0.90;;;;;;;;;;5102570;28;20086;-90
2021/01/14 03:30:19;;;;;;;11.65;1.63;;;;;;;;;;5110611;28;20023;-91
2021/01/14 03:32:46;;;;;;;6.88;1.13;;;;;;;;;;5105605;28;20024;-90
2021/01/14 03:35:12;;;;;;;4.00;1.55;;;;;;;;;;5105246;28;20027;-89
2021/01/14 03:37:42;;;;;;;7.72;1.58;;;;;;;;;;5106073;28;20084;-89
2021/01/14 03:40:12;;;;;;;8.05;1.70;;;;;;;;;;5105590;28;20043;-90
2021/01/14 03:42:38;;;;;;;4.90;1.55;;;;;;;;;;5123614;28;20101;-90
2021/01/14 03:45:08;;;;;;;4.47;1.88;;;;;;;;;;5121580;28;20035;-90
2021/01/14 03:47:34;;;;;;;8.30;1.83;;;;;;;;;;5109667;28;20081;-90
2021/01/14 03:50:00;;;;;;;6.25;1.38;;;;;;;;;;5104261;28;20026;-91
2021/01/14 03:52:27;;;;;;;4.05;1.17;;;;;;;;;;5108735;28;20035;-90
2021/01/14 03:54:53;;;;;;;5.78;1.48;;;;;;;;;;5108418;28;20081;-90
2021/01/14 03:57:19;;;;;;;5.57;1.15;;;;;;;;;;5109200;28;20024;-90
2021/01/14 03:59:45;;;;;;;6.30;1.35;;;;;;;;;;5108911;28;20440;-89
2021/01/14 04:02:12;;;;;;;6.40;1.65;;;;;;;;;;5108063;28;20173;-89
2021/01/14 04:04:39;;;;;;;6.15;1.00;;;;;;;;;;5127246;28;20031;-89
2021/01/14 04:07:09;;;;;;;6.28;1.23;;;;;;;;;;5107568;28;20047;-90
2021/01/14 04:09:35;;;;;;;4.43;1.40;;;;;;;;;;5125507;28;20030;-90
2021/01/14 04:12:01;;;;;;;4.70;1.30;;;;;;;;;;5108164;28;20030;-90
2021/01/14 04:14:27;;;;;;;6.95;1.52;;;;;;;;;;5107957;28;20080;-91
2021/01/14 04:16:54;;;;;;;8.40;1.48;;;;;;;;;;5106891;28;20077;-90
2021/01/14 04:19:20;;;;;;;3.53;1.00;;;;;;;;;;5107222;28;20090;-88
2021/01/14 04:21:47;;;;;;;3.75;1.20;;;;;;;;;;5107341;28;20039;-90
2021/01/14 04:24:13;;;;;;;4.93;2.20;;;;;;;;;;5108080;28;20020;-90
2021/01/14 04:26:39;;;;;;;5.38;1.33;;;;;;;;;;5126806;28;20051;-89
2021/01/14 04:29:05;;;;;;;7.25;1.20;;;;;;;;;;5109178;28;20029;-90
2021/01/14 04:31:32;;;;;;;7.03;1.17;;;;;;;;;;5127199;28;20043;-91
2021/01/14 04:33:58;;;;;;;4.85;2.72;;;;;;;;;;5066601;28;20077;-90
2021/01/14 04:36:24;;;;;;;6.05;1.08;;;;;;;;;;5087717;28;20349;-90
2021/01/14 04:38:50;;;;;;;5.90;1.60;;;;;;;;;;5114770;28;20019;-90
2021/01/14 04:41:20;;;;;;;5.00;0.90;;;;;;;;;;5105607;28;20088;-89
2021/01/14 04:43:47;;;;;;;6.90;1.23;;;;;;;;;;5105317;28;20438;-90
2021/01/14 04:46:13;;;;;;;3.65;1.58;;;;;;;;;;5122842;28;20034;-91
2021/01/14 04:48:40;;;;;;;4.63;1.50;;;;;;;;;;5103889;28;20423;-89
2021/01/14 04:51:07;;;;;;;7.60;1.10;;;;;;;;;;5104685;28;20035;-90
2021/01/14 04:53:34;;;;;;;5.70;1.13;;;;;;;;;;5105334;28;20115;-89
2021/01/14 04:56:02;;;;;;;3.35;1.08;;;;;;;;;;5105701;28;20330;-90
2021/01/14 04:58:29;;;;;;;3.22;1.38;;;;;;;;;;5123003;28;20024;-88
2021/01/14 05:01:01;;;;;;;2.13;0.95;;;;;;;;;;5123833;28;20032;-90
2021/01/14 05:03:28;;;;;;;4.40;1.42;;;;;;;;;;5123576;28;20027;-91
2021/01/14 05:05:55;;;;;;;5.20;1.50;;;;;;;;;;5104791;28;20070;-89
2021/01/14 05:08:26;;;;;;;5.60;1.45;;;;;;;;;;5104188;28;20062;-90
2021/01/14 05:10:53;;;;;;;3.08;0.88;;;;;;;;;;5104284;28;20106;-90
2021/01/14 05:13:22;;;;;;;2.78;1.50;;;;;;;;;;5104378;28;20019;-90
2021/01/14 05:15:48;;;;;;;7.03;1.00;;;;;;;;;;5101989;28;20020;-90
2021/01/14 05:18:14;;;;;;;5.32;1.35;;;;;;;;;;5102185;28;20035;-90
2021/01/14 05:20:41;;;;;;;3.03;1.00;;;;;;;;;;5100970;28;20028;-90
2021/01/14 05:23:07;;;;;;;5.15;1.23;;;;;;;;;;5056186;28;20022;-91
2021/01/14 05:25:33;;;;;;;7.88;1.52;;;;;;;;;;5018781;28;20049;-91
2021/01/14 05:28:13;;;;;;;5.07;1.40;;;;;;;;;;5088095;28;20188;-90
2021/01/14 05:30:42;;;;;;;5.28;1.70;;;;;;;;;;5087310;28;20022;-90
2021/01/14 05:33:12;;;;;;;3.38;0.80;;;;;;;;;;5088009;28;20059;-90
2021/01/14 05:35:47;;;;;;;4.97;1.45;;;;;;;;;;5019591;28;20038;-89
2021/01/14 05:38:20;;;;;;;6.18;1.42;;;;;;;;;;5087648;28;20392;-91
2021/01/14 05:41:10;;;;;;;3.63;1.10;;;;;;;;;;5086570;28;20069;-90
2021/01/14 05:43:32;;;;;;;4.53;1.48;;;;;;;;;;5017754;28;20032;-90
2021/01/14 05:46:15;;;;;;;4.25;1.33;;;;;;;;;;5086575;28;20030;-91
2021/01/14 05:48:41;;;;;;;4.88;1.27;;;;;;;;;;5088018;28;20097;-91
2021/01/14 05:51:15;;;;;;;4.38;1.17;;;;;;;;;;5088962;28;20425;-90
2021/01/14 05:53:52;;;;;;;6.45;1.38;;;;;;;;;;5019547;28;20029;-90
2021/01/14 05:56:23;;;;;;;6.80;1.52;;;;;;;;;;5087719;28;20123;-90
2021/01/14 05:58:49;;;;;;;3.83;1.10;;;;;;;;;;5019181;28;20037;-89
2021/01/14 06:01:16;;;;;;;8.13;1.38;;;;;;;;;;5069769;28;20039;-90
2021/01/14 06:03:42;;;;;;;6.75;1.15;;;;;;;;;;5121885;28;20028;-90
2021/01/14 06:06:17;;;;;;;3.47;1.25;;;;;;;;;;5103398;28;20027;-91
2021/01/14 06:08:43;;;;;;;6.95;1.20;;;;;;;;;;5121799;28;20031;-90
2021/01/14 06:11:22;;;;;;;6.88;1.13;;;;;;;;;;5107063;28;20023;-90
2021/01/14 06:13:49;;;;;;;6.72;1.58;;;;;;;;;;5125367;28;20118;-90
2021/01/14 06:16:15;;;;;;;2.90;0.95;;;;;;;;;;5130498;28;20031;-91
2021/01/14 06:18:41;;;;;;;5.80;1.42;;;;;;;;;;5112378;28;20031;-90
2021/01/14 06:21:14;;;;;;;4.78;1.25;;;;;;;;;;5130345;28;20034;-90
2021/01/14 06:23:47;;;;;;;5.32;1.30;;;;;;;;;;5105618;28;20031;-90
2021/01/14 06:26:26;;;;;;;5.95;1.85;;;;;;;;;;5106348;28;20028;-90
2021/01/14 06:28:52;;;;;;;3.03;1.45;;;;;;;;;;5104806;28;20042;-91
2021/01/14 06:31:24;;;;;;;4.82;1.30;;;;;;;;;;5124751;28;20122;-90
2021/01/14 06:33:53;;;;;;;4.30;1.20;;;;;;;;;;5105888;27;20027;-92
2021/01/14 06:36:20;;;;;;;4.23;1.33;;;;;;;;;;5111847;28;20050;-90
2021/01/14 06:38:48;;;;;;;3.22;1.40;;;;;;;;;;5110911;28;20027;-90
2021/01/14 06:41:19;;;;;;;6.90;1.55;;;;;;;;;;5109456;28;20291;-91
2021/01/14 06:43:46;;;;;;;6.63;1.42;;;;;;;;;;5109763;28;20050;-92
2021/01/14 06:46:22;;;;;;;3.85;1.35;;;;;;;;;;5107896;28;20023;-91
2021/01/14 06:48:57;;;;;;;8.05;1.52;;;;;;;;;;5111025;28;20027;-91
2021/01/14 06:51:24;;;;;;;5.35;1.58;;;;;;;;;;5112692;28;20031;-90
2021/01/14 06:53:53;;;;;;;3.65;1.40;;;;;;;;;;5124822;28;20015;-90
2021/01/14 06:56:21;;;;;;;9.75;1.30;;;;;;;;;;5115757;28;20038;-90
2021/01/14 06:58:51;;;;;;;7.85;1.80;;;;;;;;;;5100600;28;20108;-90
2021/01/14 07:01:18;;;;;;;2.63;1.13;;;;;;;;;;5086875;28;20033;-90
2021/01/14 07:03:58;;;;;;;5.90;1.35;;;;;;;;;;5103336;28;20041;-91
2021/01/14 07:06:27;;;;;;;8.40;1.42;;;;;;;;;;5111571;28;20023;-90
2021/01/14 07:09:05;;;;;;;5.85;1.67;;;;;;;;;;5104637;28;20067;-91
2021/01/14 07:11:41;;;;;;;4.70;1.30;;;;;;;;;;5107161;28;20039;-91
2021/01/14 07:14:12;;;;;;;4.20;1.60;;;;;;;;;;5096775;28;20035;-91
2021/01/14 07:16:41;;;;;;;4.47;1.17;;;;;;;;;;5110756;28;20031;-90
2021/01/14 07:19:07;;;;;;;4.47;1.65;;;;;;;;;;5101946;28;20038;-90
2021/01/14 07:21:35;;;;;;;7.05;2.08;;;;;;;;;;5113553;27;20038;-90
2021/01/14 07:24:01;;;;;;;4.88;1.52;;;;;;;;;;5110413;28;20019;-90
2021/01/14 07:26:29;;;;;;;6.55;1.65;;;;;;;;;;5128138;27;20043;-91
2021/01/14 07:28:55;;;;;;;5.57;1.30;;;;;;;;;;5111424;28;20131;-90
2021/01/14 07:31:26;;;;;;;3.58;1.67;;;;;;;;;;5115318;28;20075;-90
2021/01/14 07:33:53;;;;;;;2.60;1.42;;;;;;;;;;5109182;28;20123;-90
2021/01/14 07:36:20;;;;;;;5.90;2.00;;;;;;;;;;5132265;28;20051;-90
2021/01/14 07:38:48;;;;;;;6.55;2.25;;;;;;;;;;5112763;28;20119;-90
2021/01/14 07:41:14;;;;;;;3.97;1.95;;;;;;;;;;5114385;28;20367;-91
2021/01/14 07:43:42;;;;;;;6.70;1.65;;;;;;;;;;5114108;28;20342;-90
2021/01/14 07:46:21;;;;;;;4.75;1.80;;;;;;;;;;5104447;28;20055;-91
2021/01/14 07:48:51;;;;;;;7.47;1.98;;;;;;;;;;5108762;28;20066;-89
2021/01/14 07:51:17;;;;;;;;;;;;;;;;;;5101866;28;20012;-88
2021/01/14 07:53:45;;;;;;;8.10;2.10;;;;;;;;;;5107676;28;19911;-91
2021/01/14 07:56:27;;;;;;;5.70;1.98;;;;;;;;;;5103066;28;20024;-90
2021/01/14 07:58:54;;;;;;;5.20;1.75;;;;;;;;;;5104640;28;20074;-90
2021/01/14 08:01:20;;;;;;;2.97;1.50;;;;;;;;;;5123017;28;20035;-90
2021/01/14 08:03:47;;;;;;;6.93;2.28;;;;;;;;;;5100986;28;20125;-90
2021/01/14 08:06:37;;;;;;;4.97;2.33;;;;;;;;;;5131365;27;20023;-89
2021/01/14 08:09:07;;;;;;;7.82;2.08;;;;;;;;;;5079987;28;20030;-88
2021/01/14 08:11:37;;;;;;;9.52;2.28;;;;;;;;;;5100158;28;20047;-89
2021/01/14 08:14:16;;;;;;;7.45;3.15;;;;;;;;;;5109563;28;20080;-89
2021/01/14 08:16:56;;;;;;;5.60;1.95;;;;;;;;;;5109506;28;20338;-88
2021/01/14 08:19:23;;;;;;;6.90;1.65;;;;;;;;;;5101940;28;20032;-88
2021/01/14 08:22:01;;;;;;;9.65;2.35;;;;;;;;;;5105050;28;20032;-89
2021/01/14 08:24:38;;;;;;;10.32;2.33;;;;;;;;;;5102392;28;20533;-89
2021/01/14 08:27:06;;;;;;;6.63;2.00;;;;;;;;;;5104882;28;20031;-88
2021/01/14 08:29:41;;;;;;;6.05;2.40;;;;;;;;;;5093964;28;20516;-88
2021/01/14 08:32:26;;;;;;;7.88;1.85;;;;;;;;;;5101392;28;20099;-89
2021/01/14 08:34:55;;;;;;;6.32;1.90;;;;;;;;;;5122333;27;20061;-88
2021/01/14 08:37:39;;;;;;;7.80;2.00;;;;;;;;;;5102420;28;20027;-89
2021/01/14 08:40:10;;;;;;;3.38;1.42;;;;;;;;;;5122746;28;20079;-89
2021/01/14 08:42:37;;;;;;;5.85;1.90;;;;;;;;;;5127403;27;20442;-89
2021/01/14 08:45:14;;;;;;;4.18;1.45;;;;;;;;;;5106071;28;20123;-89
2021/01/14 08:47:53;;;;;;;5.10;1.92;;;;;;;;;;5104945;28;20031;-89
2021/01/14 08:50:20;;;;;;;4.15;2.08;;;;;;;;;;5105737;28;20027;-89
2021/01/14 08:52:54;;;;;;;5.20;2.08;;;;;;;;;;5109273;28;20028;-90
2021/01/14 08:55:21;;;;;;;3.80;1.60;;;;;;;;;;5118791;28;20024;-89
2021/01/14 08:57:51;;;;;;;3.83;2.72;;;;;;;;;;5100048;28;20142;-88
2021/01/14 09:00:18;;;;;;;4.05;1.80;;;;;;;;;;5104084;28;20929;-90
2021/01/14 09:02:45;;;;;;;5.68;2.10;;;;;;;;;;5098977;28;20023;-90
2021/01/14 09:05:12;;;;;;;8.13;1.70;;;;;;;;;;5103094;28;20062;-90
2021/01/14 09:07:38;;;;;;;4.35;1.77;;;;;;;;;;5107463;28;20039;-90
2021/01/14 09:10:05;;;;;;;6.18;2.05;;;;;;;;;;5105434;28;20026;-90
2021/01/14 09:12:31;;;;;;;5.95;2.03;;;;;;;;;;5106330;28;20028;-91
2021/01/14 09:14:57;;;;;;;4.65;2.00;;;;;;;;;;5108367;28;20023;-91
2021/01/14 09:17:23;;;;;;;4.80;1.77;;;;;;;;;;5108979;28;20023;-91
2021/01/14 09:19:53;;;;;;;6.53;2.20;;;;;;;;;;5127201;28;20426;-91
2021/01/14 09:22:26;;;;;;;8.38;2.42;;;;;;;;;;5107934;28;20062;-91
2021/01/14 09:24:52;;;;;;;6.53;2.30;;;;;;;;;;5107563;28;20032;-91
2021/01/14 09:27:19;;;;;;;10.10;2.60;;;;;;;;;;5103696;28;20076;-87
2021/01/14 09:29:45;;;;;;;7.47;2.53;;;;;;;;;;5098589;28;20076;-89
2021/01/14 09:32:14;;;;;;;5.38;2.35;;;;;;;;;;5125107;28;20342;-90
2021/01/14 09:34:40;;;;;;;;;;;;;;;;;;5106504;28;20038;-89
2021/01/14 09:37:22;;;;;;;5.13;2.42;;;;;;;;;;5106772;28;19933;-89
2021/01/14 09:39:48;;;;;;;6.28;2.17;;;;;;;;;;5106965;28;20035;-89
2021/01/14 09:42:17;;;;;;;7.38;2.42;;;;;;;;;;5104446;28;20054;-90
2021/01/14 09:44:44;;;;;;;4.45;2.20;;;;;;;;;;5098355;28;20024;-91
2021/01/14 09:47:13;;;;;;;3.72;2.47;;;;;;;;;;5099040;28;20036;-89
2021/01/14 09:49:42;;;;;;;5.43;2.53;;;;;;;;;;5105840;28;20043;-88
2021/01/14 09:52:09;;;;;;;6.38;2.00;;;;;;;;;;5119409;28;20038;-88
2021/01/14 09:54:37;;;;;;;6.05;1.73;;;;;;;;;;5102388;28;20114;-89
2021/01/14 09:57:03;;;;;;;6.40;2.08;;;;;;;;;;5117251;28;20038;-87
2021/01/14 09:59:47;;;;;;;9.23;2.67;;;;;;;;;;5098431;28;20027;-89
2021/01/14 10:02:24;;;;;;;5.38;2.22;;;;;;;;;;5119287;28;20115;-89
2021/01/14 10:04:55;;;;;;;7.57;2.33;;;;;;;;;;5083682;28;20050;-89
2021/01/14 10:07:22;;;;;;;4.30;2.40;;;;;;;;;;5113264;28;20028;-90
2021/01/14 10:09:51;;;;;;;7.57;2.38;;;;;;;;;;5091964;28;20086;-90
2021/01/14 10:12:18;;;;;;;5.68;2.10;;;;;;;;;;5093287;28;20354;-89
2021/01/14 10:14:44;;;;;;;7.55;2.47;;;;;;;;;;5118934;28;20466;-88
2021/01/14 10:17:19;;;;;;;8.82;2.40;;;;;;;;;;5110151;28;20015;-86
2021/01/14 10:19:50;;;;;;;7.50;2.05;;;;;;;;;;5134274;28;20033;-91
2021/01/14 10:22:17;;;;;;;5.07;2.55;;;;;;;;;;5104591;28;20040;-91
2021/01/14 10:24:43;;;;;;;6.75;2.30;;;;;;;;;;5104879;28;20028;-89
2021/01/14 10:27:21;;;;;;;5.07;2.05;;;;;;;;;;5121707;28;20027;-90
2021/01/14 10:29:48;;;;;;;5.88;2.42;;;;;;;;;;5115883;28;20037;-89
2021/01/14 10:32:38;;;;;;;4.68;2.17;;;;;;;;;;5105220;28;20076;-88
2021/01/14 10:35:04;;;;;;;7.68;2.78;;;;;;;;;;5102906;28;20106;-91
2021/01/14 10:37:31;;;;;;;5.43;1.83;;;;;;;;;;5127787;28;20031;-89
2021/01/14 10:39:59;;;;;;;8.25;2.67;;;;;;;;;;5123155;27;20102;-90
2021/01/14 10:42:25;;;;;;;4.80;2.03;;;;;;;;;;5111675;28;20031;-88
2021/01/14 10:44:59;;;;;;;6.07;2.35;;;;;;;;;;5110953;28;20085;-88
2021/01/14 10:47:26;;;;;;;12.60;2.83;;;;;;;;;;5110936;28;20029;-90
2021/01/14 10:49:52;;;;;;;5.18;2.13;;;;;;;;;;5133439;27;20034;-90
2021/01/14 10:52:18;;;;;;;7.05;2.00;;;;;;;;;;5098936;28;20054;-89
2021/01/14 10:58:08;;;;;;;7.53;2.25;;;;;;;;;;5006199;28;20094;-90
2021/01/14 11:00:34;;;;;;;3.88;1.95;;;;;;;;;;4992215;28;20038;-91
2021/01/14 11:03:25;;;;;;;7.45;2.40;;;;;;;;;;5060058;28;20035;-91
2021/01/14 11:05:52;;;;;;;6.30;2.58;;;;;;;;;;5114582;28;20029;-89
2021/01/14 11:08:37;;;;;;;6.95;2.17;;;;;;;;;;5116909;28;20027;-89
2021/01/14 11:11:10;;;;;;;6.60;2.25;;;;;;;;;;5130593;28;20019;-89
2021/01/14 11:13:37;;;;;;;7.55;2.33;;;;;;;;;;5086916;28;20030;-89
2021/01/14 11:16:07;;;;;;;6.25;2.65;;;;;;;;;;5095222;28;20034;-87
2021/01/14 11:18:38;;;;;;;6.25;1.83;;;;;;;;;;5089852;28;20049;-88
2021/01/14 11:21:04;;;;;;;4.75;2.30;;;;;;;;;;5084980;28;20132;-89
2021/01/14 11:23:30;;;;;;;6.55;2.42;;;;;;;;;;5092404;28;20029;-88
2021/01/14 11:25:59;;;;;;;5.50;1.83;;;;;;;;;;5096721;28;20114;-89
2021/01/14 11:28:27;;;;;;;4.22;2.42;;;;;;;;;;5094763;28;20124;-90
2021/01/14 11:30:56;;;;;;;6.78;2.47;;;;;;;;;;5115944;28;20051;-89
2021/01/14 11:33:22;;;;;;;4.95;2.60;;;;;;;;;;5125908;28;20020;-90
2021/01/14 11:35:49;;;;;;;11.23;2.88;;;;;;;;;;5103154;28;20039;-89
2021/01/14 11:38:18;;;;;;;7.97;3.05;;;;;;;;;;5109128;28;20027;-91
2021/01/14 11:40:47;;;;;;;6.60;2.67;;;;;;;;;;5113674;28;20068;-91
2021/01/14 11:43:17;;;;;;;5.57;3.15;;;;;;;;;;5134269;28;20031;-90
2021/01/14 11:45:48;;;;;;;6.03;3.00;;;;;;;;;;5112525;28;20126;-88
2021/01/14 11:48:14;;;;;;;5.80;2.78;;;;;;;;;;5110004;28;20431;-87
2021/01/14 11:50:40;;;;;;;5.82;2.33;;;;;;;;;;5112939;28;20027;-91
2021/01/14 11:53:06;;;;;;;7.18;2.83;;;;;;;;;;5127158;28;20027;-90
2021/01/14 11:55:33;;;;;;;5.93;2.55;;;;;;;;;;5109481;28;20023;-89
2021/01/14 11:57:59;;;;;;;7.05;2.33;;;;;;;;;;5105010;28;20020;-89
2021/01/14 12:00:25;;;;;;;5.93;2.22;;;;;;;;;;5109301;28;20098;-89
2021/01/14 12:02:57;;;;;;;11.18;3.00;;;;;;;;;;5113470;28;20023;-89
2021/01/14 12:05:24;;;;;;;7.82;2.60;;;;;;;;;;5113942;28;20075;-90
2021/01/14 12:07:50;;;;;;;6.45;2.35;;;;;;;;;;5111137;28;20388;-91
2021/01/14 12:10:16;;;;;;;7.32;2.78;;;;;;;;;;5128787;28;20020;-89
2021/01/14 12:12:43;;;;;;;7.15;2.60;;;;;;;;;;5127547;28;20118;-88
2021/01/14 12:15:09;;;;;;;4.85;2.83;;;;;;;;;;5106205;28;20315;-90
2021/01/14 12:17:35;;;;;;;4.03;2.35;;;;;;;;;;5102497;28;20031;-89
2021/01/14 12:20:01;;;;;;;7.22;2.65;;;;;;;;;;5101556;28;20031;-90
2021/01/14 12:22:28;;;;;;;7.82;2.28;;;;;;;;;;5108843;28;20104;-88
2021/01/14 12:24:57;;;;;;;6.82;2.88;;;;;;;;;;5114414;28;20028;-90
2021/01/14 12:27:23;;;;;;;8.35;3.05;;;;;;;;;;5126029;28;20031;-91
2021/01/14 12:29:49;;;;;;;5.28;2.10;;;;;;;;;;5129949;28;20019;-91
2021/01/14 12:32:15;;;;;;;7.95;2.17;;;;;;;;;;5108852;28;20357;-88
2021/01/14 12:34:44;;;;;;;11.80;3.13;;;;;;;;;;5114175;28;20046;-89
2021/01/14 12:37:10;;;;;;;8.15;2.85;;;;;;;;;;5106973;28;20032;-87
2021/01/14 12:39:36;;;;;;;4.43;2.75;;;;;;;;;;5105006;28;20024;-87
2021/01/14 12:42:03;;;;;;;6.40;2.45;;;;;;;;;;5110281;28;20036;-92
2021/01/14 12:44:29;;;;;;;4.82;2.35;;;;;;;;;;5110053;28;20023;-88
2021/01/14 12:46:55;;;;;;;5.50;2.60;;;;;;;;;;5103826;28;20058;-88
2021/01/14 12:49:21;;;;;;;10.63;2.40;;;;;;;;;;5125986;28;20020;-90
2021/01/14 12:51:47;;;;;;;5.53;2.63;;;;;;;;;;5099377;28;20046;-90
2021/01/14 12:54:14;;;;;;;8.38;3.20;;;;;;;;;;5124230;28;20046;-89
2021/01/14 12:56:41;;;;;;;10.50;2.72;;;;;;;;;;5105196;28;20028;-91
2021/01/14 12:59:09;;;;;;;5.72;2.80;;;;;;;;;;5107983;28;20031;-89
2021/01/14 13:01:38;;;;;;;7.70;3.00;;;;;;;;;;5112273;28;20087;-90
2021/01/14 13:04:06;;;;;;;8.93;2.70;;;;;;;;;;5110949;28;20036;-88
2021/01/14 13:06:43;;;;;;;6.93;2.92;;;;;;;;;;5112560;28;20327;-89
2021/01/14 13:09:19;;;;;;;6.97;2.97;;;;;;;;;;5114194;28;20084;-91
2021/01/14 13:11:48;;;;;;;7.35;2.90;;;;;;;;;;5105785;28;20031;-90
2021/01/14 13:14:17;;;;;;;6.28;3.15;;;;;;;;;;5109611;28;20023;-86
2021/01/14 13:16:44;;;;;;;8.70;2.83;;;;;;;;;;5106641;28;20040;-90
2021/01/14 13:19:13;;;;;;;7.43;2.58;;;;;;;;;;5102263;28;20028;-90
2021/01/14 13:21:46;;;;;;;4.70;2.97;;;;;;;;;;5106281;28;20044;-90
2021/01/14 13:24:13;;;;;;;4.93;2.58;;;;;;;;;;5099262;28;20039;-90
2021/01/14 13:26:39;;;;;;;8.63;2.60;;;;;;;;;;5109894;28;20419;-89
2021/01/14 13:29:06;;;;;;;6.70;2.50;;;;;;;;;;5107030;28;20040;-89
2021/01/14 13:31:58;;;;;;;8.43;3.63;;;;;;;;;;5096553;28;20122;-89
2021/01/14 13:34:25;;;;;;;9.38;2.75;;;;;;;;;;5096664;28;20138;-88
2021/01/14 13:36:54;;;;;;;7.15;2.40;;;;;;;;;;5107020;28;20351;-89
2021/01/14 13:39:20;;;;;;;9.38;3.95;;;;;;;;;;5105194;28;20050;-89
2021/01/14 13:41:48;;;;;;;4.38;2.33;;;;;;;;;;5110091;28;20031;-87
2021/01/14 13:44:14;;;;;;;4.95;3.10;;;;;;;;;;5110221;28;20054;-89
2021/01/14 13:46:41;;;;;;;4.00;2.45;;;;;;;;;;5105107;28;20023;-90
2021/01/14 13:49:07;;;;;;;4.05;2.28;;;;;;;;;;5129785;27;20058;-88
2021/01/14 13:51:34;;;;;;;6.65;2.55;;;;;;;;;;5109553;28;20062;-89
2021/01/14 13:54:04;;;;;;;6.05;2.90;;;;;;;;;;5130184;28;20027;-87
2021/01/14 13:56:31;;;;;;;7.85;2.63;;;;;;;;;;5111768;28;20031;-87
2021/01/14 13:59:00;;;;;;;8.60;2.70;;;;;;;;;;5108773;28;20038;-87
2021/01/14 14:01:32;;;;;;;8.98;3.10;;;;;;;;;;5114192;28;20031;-88
2021/01/14 14:04:09;;;;;;;10.18;2.70;;;;;;;;;;5112460;28;20035;-91
2021/01/14 14:06:36;;;;;;;3.80;2.92;;;;;;;;;;5137034;28;20355;-90
2021/01/14 14:09:09;;;;;;;6.50;2.80;;;;;;;;;;5131156;28;20041;-89
2021/01/14 14:11:36;;;;;;;5.72;2.90;;;;;;;;;;5122423;28;20031;-87
2021/01/14 14:14:02;;;;;;;6.18;2.90;;;;;;;;;;5126210;28;20107;-90
2021/01/14 14:16:28;;;;;;;5.97;2.72;;;;;;;;;;5095385;28;20032;-89
2021/01/14 14:18:58;;;;;;;4.82;3.20;;;;;;;;;;5124481;27;20095;-89
2021/01/14 14:21:24;;;;;;;6.50;2.80;;;;;;;;;;5113972;28;20043;-90
2021/01/14 14:23:50;;;;;;;4.65;3.03;;;;;;;;;;5100935;28;20028;-87
2021/01/14 14:26:16;;;;;;;4.80;3.20;;;;;;;;;;5102103;28;20038;-88
2021/01/14 14:28:43;;;;;;;6.30;2.90;;;;;;;;;;5132864;28;20028;-89
2021/01/14 14:31:20;;;;;;;7.50;3.65;;;;;;;;;;5103550;28;20039;-90
2021/01/14 14:33:46;;;;;;;7.32;2.80;;;;;;;;;;5115171;28;20035;-87
2021/01/14 14:36:18;;;;;;;10.13;3.05;;;;;;;;;;5109051;28;20031;-90
2021/01/14 14:38:44;;;;;;;7.88;2.85;;;;;;;;;;5106696;28;20024;-89
2021/01/14 14:41:11;;;;;;;4.38;3.00;;;;;;;;;;5106397;28;20036;-89
2021/01/14 14:43:41;;;;;;;8.35;3.28;;;;;;;;;;5084759;28;20048;-89
2021/01/14 14:46:14;;;;;;;7.10;3.65;;;;;;;;;;5082917;28;20032;-89
2021/01/14 14:48:40;;;;;;;3.80;2.83;;;;;;;;;;5101887;28;20028;-88
2021/01/14 14:51:14;;;;;;;8.80;3.13;;;;;;;;;;5104491;28;20024;-89
2021/01/14 14:53:41;;;;;;;8.00;2.88;;;;;;;;;;5095344;28;20692;-90
2021/01/14 14:56:10;;;;;;;5.03;3.05;;;;;;;;;;5082669;28;20082;-86
2021/01/14 14:58:37;;;;;;;9.90;3.47;;;;;;;;;;5084639;28;20024;-87